• Join FlightAware (Why Join?)
  • Login
  • US Flag 
Gobble Gobble! 
11:27AM EST


 

Airport Tracker/Info


-or-


 

Live Flight TrackerFlight Track Log ✈ N77VZ ✈ 19-May-2014 ✈ KBTV - KCAE

Flight Track Log - Related Links

Times and Time Zones

All times are in EDT time to prevent confusion due to time zone crossing. See the N77VZ flight status page for this flight to view local times or setup timezone preferences in your user account.

Time Position Orientation Groundspeed Altitude Reporting Facility
EDT Latitude Longitude Course Direction KTS MPH feet Rate Location/Type
06:08AM 44.4725 -73.2636 184° South 212 244 6,600  Level Boston Center
06:09AM 44.4067 -73.2717 185° South 222 255 10,000 3,060 Climbing Boston Center
06:10AM 44.3400 -73.2803 185° South 238 274 12,900 2,820 Climbing Boston Center
06:11AM 44.2711 -73.2850 183° South 246 283 15,800 2,760 Climbing Boston Center
06:12AM 44.2003 -73.2992 188° South 259 298 18,400 2,400 Climbing Boston Center
06:13AM 43.9265 -73.2140 184° South  Level FlightAware Approximate
06:13AM 44.1344 -73.3283 198° South 265 305 20,700  Level Boston Center
06:14AM 44.0583 -73.3572 195° South 278 320 23,200 2,400 Climbing Boston Center
06:15AM 43.9811 -73.3856 195° South 285 328 25,500 2,220 Climbing Boston Center
06:16AM 43.9031 -73.4142 195° South 287 330 27,700 2,040 Climbing Boston Center
06:17AM 43.8067 -73.4508 195° South 299 344 29,700 1,680 Climbing Boston Center
06:18AM 43.7206 -73.4836 195° South 318 366 31,200 1,260 Climbing Boston Center
06:19AM 43.6339 -73.5167 195° South 322 371 32,300 1,020 Climbing Boston Center
06:20AM 43.5456 -73.5494 195° South 327 376 33,300 1,140 Climbing Boston Center
06:21AM 43.4569 -73.5814 195° South 328 377 34,700 1,140 Climbing Boston Center
06:22AM 43.3694 -73.6156 196° South 328 377 35,600 840 Climbing Boston Center
06:23AM 43.2814 -73.6497 196° South 328 377 36,500 900 Climbing Boston Center
06:24AM 43.1936 -73.6800 194° South 329 379 37,500 720 Climbing Boston Center
06:25AM 43.1108 -73.7114 195° South 326 375 38,000 480 Climbing Boston Center
06:26AM 43.0219 -73.7456 196° South 326 375 38,500 480 Climbing Boston Center
06:27AM 42.9308 -73.7772 194° South 332 382 39,000 480 Climbing Boston Center
06:28AM 42.8389 -73.8122 196° South 332 382 39,500 480 Climbing Boston Center
06:29AM 42.7503 -73.8450 195° South 332 382 40,000 240 Climbing Boston Center
06:30AM 42.6600 -73.8775 195° South 332 382 40,000  Level Boston Center
06:31AM 42.5686 -73.9114 195° South 336 387 40,000  Level Boston Center
06:32AM 42.4750 -73.9453 195° South 343 395 40,000  Level Boston Center
06:33AM 42.3797 -73.9792 195° South 352 405 40,000  Level Boston Center
06:34AM 42.2856 -74.0136 195° South 352 405 40,000  Level Boston Center
06:35AM 42.1708 -74.0483 193° South 352 405 40,000  Level Boston Center
06:36AM 42.0736 -74.0736 191° South 352 405 40,000  Level Boston Center
06:37AM 41.9756 -74.1003 191° South 354 407 40,000  Level Boston Center
06:38AM 41.8756 -74.1242 190° South 362 417 40,000  Level Boston Center
06:40AM 41.7761 -74.1500 191° South 362 417 40,000  Level Boston Center
06:40AM 41.6719 -74.1764 191° South 364 419 40,000  Level Boston Center
06:42AM 41.5722 -74.2025 191° South 364 419 40,000  Level Boston Center
06:43AM 41.4719 -74.2278 191° South 365 420 40,000  Level Boston Center
06:44AM 41.3714 -74.2542 191° South 366 421 40,000  Level Boston Center
06:44AM 41.3308 -74.2633 190° South 364 419 40,000  Level New York Center
06:45AM 41.2194 -74.2906 190° South 369 425 40,000  Level New York Center
06:46AM 41.1267 -74.3353 200° South 369 425 40,000  Level New York Center
06:47AM 41.0569 -74.4336 227° Southwest 356 410 40,000  Level New York Center
06:48AM 40.9875 -74.5206 223° Southwest 356 410 40,000  Level New York Center
06:49AM 40.9225 -74.6019 223° Southwest 356 410 40,000  Level New York Center
06:50AM 40.8528 -74.6942 225° Southwest 356 410 40,000  Level New York Center
06:51AM 40.7808 -74.7831 223° Southwest 356 410 40,000  Level New York Center
06:52AM 40.7092 -74.8719 223° Southwest 356 410 40,000  Level New York Center
06:53AM 40.6372 -74.9606 223° Southwest 356 410 40,000  Level New York Center
06:54AM 40.5653 -75.0492 223° Southwest 356 410 40,000  Level New York Center
06:55AM 40.4931 -75.1428 225° Southwest 356 410 40,000  Level New York Center
06:56AM 40.4189 -75.2336 223° Southwest 356 410 40,000  Level New York Center
06:57AM 40.3467 -75.3242 224° Southwest 361 415 40,000  Level New York Center
06:58AM 40.2742 -75.4147 224° Southwest 361 415 40,000  Level New York Center
06:59AM 40.1978 -75.5047 222° Southwest 366 421 40,000  Level New York Center
07:00AM 40.1253 -75.5947 224° Southwest 366 421 40,000  Level New York Center
07:01AM 40.0508 -75.6844 223° Southwest 366 421 40,000  Level New York Center
07:02AM 39.9781 -75.7769 224° Southwest 373 429 40,000  Level New York Center
07:03AM 39.9011 -75.8689 223° Southwest 373 429 40,000  Level New York Center
07:05AM 39.7803 -76.0078 221° Southwest 369 425 40,000  Level Washington Center
07:06AM 39.7058 -76.0986 223° Southwest 369 425 40,000  Level Washington Center
07:07AM 39.6289 -76.1864 221° Southwest 369 425 40,000  Level Washington Center
07:08AM 39.5392 -76.2947 223° Southwest 369 425 40,000  Level Washington Center
07:09AM 39.4625 -76.3864 223° Southwest 369 425 40,000  Level Washington Center
07:10AM 39.4003 -76.4847 231° Southwest 363 418 40,000  Level Washington Center
07:11AM 39.3350 -76.5889 231° Southwest 363 418 40,000  Level Washington Center
07:12AM 39.2703 -76.6897 230° Southwest 364 419 40,000  Level Washington Center
07:13AM 39.2067 -76.7917 231° Southwest 364 419 40,000  Level Washington Center
07:14AM 39.1417 -76.8911 230° Southwest 364 419 40,000  Level Washington Center
07:15AM 39.0639 -77.0100 230° Southwest 361 415 40,000  Level Washington Center
07:16AM 38.9906 -77.0989 223° Southwest 361 415 40,000  Level Washington Center
07:17AM 38.9122 -77.1836 220° Southwest 363 418 40,000  Level Washington Center
07:18AM 38.8350 -77.2675 220° Southwest 363 418 40,000  Level Washington Center
07:19AM 38.7575 -77.3525 221° Southwest 362 417 40,000  Level Washington Center
07:20AM 38.6794 -77.4386 221° Southwest 363 418 40,000  Level Washington Center
07:21AM 38.6006 -77.5233 220° Southwest 364 419 40,000  Level Washington Center
07:22AM 38.5217 -77.6078 220° Southwest 365 420 40,000  Level Washington Center
07:23AM 38.4281 -77.7097 220° Southwest 365 420 40,000  Level Washington Center
07:24AM 38.3492 -77.7950 220° Southwest 366 421 40,000  Level Washington Center
07:25AM 38.2714 -77.8789 220° Southwest 366 421 40,000  Level Washington Center
07:26AM 38.1925 -77.9636 220° Southwest 366 421 40,000  Level Washington Center
07:27AM 38.1139 -78.0464 220° Southwest 367 422 40,000  Level Washington Center
07:28AM 38.0372 -78.1292 220° Southwest 364 419 40,000  Level Washington Center
07:29AM 37.9506 -78.2131 217° Southwest 360 414 40,000  Level Washington Center
07:30AM 37.8761 -78.2850 217° Southwest 352 405 40,000  Level Washington Center
07:31AM 37.7858 -78.3700 217° Southwest 349 402 40,000  Level Washington Center
07:33AM 37.7117 -78.4411 217° Southwest 347 399 40,000  Level Washington Center
07:34AM 37.6372 -78.5111 217° Southwest 346 398 40,000  Level Washington Center
07:35AM 37.5497 -78.5947 217° Southwest 339 390 40,000  Level Washington Center
07:36AM 37.4767 -78.6628 216° Southwest 338 389 40,000  Level Washington Center
07:37AM 37.4044 -78.7314 217° Southwest 335 386 40,000  Level Washington Center
07:38AM 37.3317 -78.7986 216° Southwest 334 384 40,000  Level Washington Center
07:39AM 37.2450 -78.8800 217° Southwest 334 384 40,000  Level Washington Center
07:40AM 37.1722 -78.9467 216° Southwest 333 383 40,000  Level Washington Center
07:41AM 37.1006 -79.0139 217° Southwest 333 383 40,000  Level Washington Center
07:42AM 37.0136 -79.0953 217° Southwest 332 382 40,000 -240 Level Washington Center
07:43AM 36.9400 -79.1625 216° Southwest 332 382 39,500 -720 Descending Washington Center
07:44AM 36.8669 -79.2308 217° Southwest 334 384 38,600 -960 Descending Washington Center
07:45AM 36.7964 -79.2944 216° Southwest 327 376 37,600 -1,200 Descending Washington Center
07:46AM 36.7122 -79.3719 216° Southwest 325 374 36,200 -1,200 Descending Washington Center
07:47AM 36.6397 -79.4381 216° Southwest 325 374 35,100 -1,140 Descending Washington Center
07:48AM 36.5675 -79.5050 217° Southwest 328 377 33,900 -1,260 Descending Washington Center
07:49AM 36.4808 -79.5856 217° Southwest 329 379 32,500 -1,260 Descending Washington Center
07:50AM 36.4067 -79.6519 216° Southwest 333 383 31,400 -1,140 Descending Washington Center
07:51AM 36.3183 -79.7253 214° Southwest 332 382 30,100 -660 Descending Atlanta Center
07:52AM 36.2456 -79.7936 217° Southwest 327 376 30,000 -60 Descending Atlanta Center
07:53AM 36.1747 -79.8564 216° Southwest 327 376 30,000  Level Atlanta Center
07:54AM 36.1058 -79.9192 216° Southwest 327 376 30,000 -60 Level Atlanta Center
07:55AM 36.0289 -79.9819 213° Southwest 322 371 29,900 -600 Descending Atlanta Center
07:56AM 35.9467 -80.0244 203° Southwest 317 365 28,900 -1,020 Descending Atlanta Center
07:57AM 35.8708 -80.0617 202° Southwest 317 365 27,900 -1,020 Descending Atlanta Center
07:58AM 35.7947 -80.1011 203° Southwest 306 352 26,900 -960 Descending Atlanta Center
07:59AM 35.7292 -80.1325 201° Southwest 298 343 26,000 -960 Descending Atlanta Center
08:00AM 35.6553 -80.1744 205° Southwest 292 336 25,000 -960 Descending Atlanta Center
08:01AM 35.5814 -80.2086 201° Southwest 292 336 24,100 -540 Descending Atlanta Center
08:02AM 35.5094 -80.2450 202° Southwest 292 336 24,000 -120 Descending Atlanta Center
08:03AM 35.4356 -80.2842 203° Southwest 292 336 23,900 -420 Descending Atlanta Center
08:04AM 35.3614 -80.3206 202° Southwest 292 336 23,200 -900 Descending Atlanta Center
08:05AM 35.2917 -80.3569 203° Southwest 287 330 22,200 -1,080 Descending Atlanta Center
08:06AM 35.2197 -80.3906 201° Southwest 287 330 21,100 -1,080 Descending Atlanta Center
08:07AM 35.1456 -80.4269 202° Southwest 287 330 20,100 -1,080 Descending Atlanta Center
08:08AM 35.0736 -80.4631 202° Southwest 287 330 19,000 -1,080 Descending Atlanta Center
08:09AM 35.0017 -80.4989 202° Southwest 287 330 18,000 -1,020 Descending Atlanta Center
08:10AM 34.9275 -80.5350 202° Southwest 287 330 17,000 -780 Descending Atlanta Center
08:11AM 34.8617 -80.5683 203° Southwest 280 322 16,500 -660 Descending Atlanta Center
08:14AM 34.7156 -80.6447 203° Southwest 248 285 14,900 -480 Descending Jacksonville Center
08:15AM 34.6556 -80.6664 197° South 248 285 14,900 -60 Level Jacksonville Center
08:16AM 34.5914 -80.7008 204° Southwest 242 278 14,800 -600 Descending Jacksonville Center
08:17AM 34.5314 -80.7328 204° Southwest 248 285 13,700 -1,200 Descending Jacksonville Center
08:18AM 34.4947 -80.7889 232° Southwest 232 267 12,500 -1,080 Descending Jacksonville Center
08:19AM 34.4581 -80.8378 228° Southwest 215 247 11,600 -900 Descending Jacksonville Center
08:20AM 34.4236 -80.8914 232° Southwest 210 242 10,700 -900 Descending Jacksonville Center
08:21AM 34.3889 -80.9400 229° Southwest 205 236 9,900 -840 Descending Jacksonville Center
08:22AM 34.3519 -80.9936 230° Southwest 205 236 9,100 -840 Descending Jacksonville Center
08:23AM 34.3194 -81.0422 231° Southwest 205 236 8,300 -900 Descending Jacksonville Center
08:24AM 34.2828 -81.0983 232° Southwest 205 236 7,400 -900 Descending Jacksonville Center
08:26AM 34.1213 -81.0802 175° South  Level FlightAware Approximate
08:33AM 33.9333 -81.1167 328° Northwest  Level FlightAware Approximate
08:34AM 33.9388 -81.1195 328° Northwest  Level Estimated
08:35AM 33.9333 -81.1167 328° Northwest  Level FlightAware Approximate
08:36AM 33.9388 -81.1195 328° Northwest  Level Estimated
08:37AM 33.9333 -81.1167 328° Northwest  Level FlightAware Approximate
08:38AM 33.9388 -81.1195 328° Northwest  Level Estimated
08:39AM 33.9333 -81.1167 328° Northwest  Level FlightAware Approximate
08:40AM 33.9388 -81.1195 328° Northwest  Level Estimated
08:41AM 33.9333 -81.1167 328° Northwest  Level FlightAware Approximate
08:42AM 33.9388 -81.1195 328° Northwest  Level Estimated